MPSM

Scarlett Martínez International Airport

Río Hato, Panama
TAF MPSM 162300Z 1700/1806 33006KT 9999 FEW018 TEMPO 1706/1710 00000KT
Issued Valid From Valid To
Nov-16 @ 23:00 UTC
(23 hours ago)
Nov-17 @ 00:00 UTC
(22 hours ago)
Nov-18 @ 06:00 UTC
(in 8 hours)
Nov-17 @ 00:00 to Nov-18 @ 06:00
TAF MPSM 162300Z 1700/1806 33006KT 9999 FEW018
Wind Visibility Clouds
330° at 6 knots 10,000+ meters
  • Few at 1,800' AGL
Expired Click to View Nov-17 @ 06:00 to Nov-17 @ 10:00
TEMPO 1706/1710 00000KT
TAF MPSM 162300Z 1700/1806 33006KT 9999 FEW018 TEMPO 1706/1710 00000KT
Issued Nov-16 @ 23:00 UTC
(23 hours ago)
Valid From Nov-17 @ 00:00 UTC
(22 hours ago)
Valid To Nov-18 @ 06:00 UTC
(in 8 hours)
Nov-17 @ 00:00 - Nov-18 @ 06:00
Wind Visibility
330° at 6 knots 10,000+ meters
Clouds
  • Few at 1,800' AGL
Nov-17 @ 06:00 - Nov-17 @ 10:00